Date,TemperatureHighF,TemperatureAvgF,TemperatureLowF,DewpointHighF,DewpointAvgF,DewpointLowF,HumidityHigh,HumidityAvg,HumidityLow,PressureMaxIn,PressureMinIn,WindSpeedMaxMPH,WindSpeedAvgMPH,GustSpeedMaxMPH,PrecipitationSumIn
2013-4-1,69.8,60.6,54.0,56.3,51.9,45.3,86,73,61,30.18,30.06,10,1,10,0.08
2013-4-2,69.3,57.3,47.1,56.1,48.8,41.3,86,74,60,30.21,30.12,10,2,10,0.00
2013-4-3,77.2,59.8,50.9,57.8,50.5,44.3,83,72,49,30.18,30.01,12,2,12,0.00
2013-4-4,72.0,60.4,54.5,60.7,53.4,47.4,89,78,65,30.15,30.04,8,1,8,0.18
2013-4-5,72.3,61.1,54.9,56.6,51.1,45.7,83,71,53,30.21,30.15,10,1,10,0.00
2013-4-6,69.1,59.4,52.3,56.1,49.5,45.0,80,70,56,30.21,30.15,9,1,9,0.00
2013-4-7,71.6,59.6,51.6,57.1,48.5,42.8,82,68,50,30.21,29.92,12,1,12,0.00
2013-4-8,70.3,56.3,48.2,47.8,40.1,34.8,76,56,42,30.04,29.86,18,4,18,0.00
2013-4-9,78.8,60.7,46.9,46.9,39.1,33.7,65,46,32,30.12,30.04,11,2,11,0.00
2013-4-10,87.6,66.3,50.4,55.3,43.5,34.4,62,45,32,30.18,30.09,14,2,14,0.00
2013-4-11,76.1,61.4,51.4,52.2,43.8,37.2,63,53,41,30.12,29.89,13,2,13,0.00
2013-4-12,75.0,58.9,46.6,53.8,43.6,36.6,73,58,45,29.95,29.89,12,2,12,0.00
2013-4-13,72.9,58.6,48.0,52.5,42.5,33.3,73,56,40,29.95,29.89,12,1,12,0.00
2013-4-14,74.5,56.8,43.9,46.5,38.5,32.2,70,51,36,29.98,29.92,12,2,12,0.00
2013-4-15,65.5,54.3,46.4,43.5,37.4,30.3,65,53,40,30.01,29.92,14,3,14,0.00
2013-4-16,72.5,54.7,40.1,41.7,34.4,27.7,66,48,33,30.18,30.01,12,2,12,0.00
2013-4-17,74.7,58.5,45.1,40.9,33.1,27.3,54,39,27,30.27,30.18,13,2,13,0.00
2013-4-18,82.2,61.0,43.5,46.8,36.4,26.1,55,41,27,30.30,30.21,9,2,9,0.00
2013-4-19,82.9,63.4,47.7,54.8,43.5,33.9,68,49,34,30.27,30.12,10,1,10,0.00
2013-4-20,84.6,64.7,50.0,52.8,44.4,38.3,69,49,32,30.15,30.01,11,2,11,0.00
2013-4-21,89.6,67.4,50.0,54.1,45.7,39.4,73,48,28,30.06,29.95,8,1,8,0.00
2013-4-22,93.4,70.0,53.6,54.4,45.2,37.6,65,43,23,30.01,29.89,10,2,10,0.00
2013-4-23,87.1,65.5,52.2,50.8,42.0,37.8,63,44,24,29.98,29.89,13,2,13,0.00
2013-4-24,73.4,61.2,51.1,51.9,45.6,37.9,67,57,46,29.98,29.86,11,2,11,0.00
2013-4-25,71.1,60.1,50.5,52.0,46.7,41.9,77,62,51,30.15,29.98,18,2,18,0.00
2013-4-26,72.9,60.3,52.0,53.1,47.0,42.1,71,62,49,30.27,30.15,11,2,11,0.00
2013-4-27,76.8,60.7,50.9,56.6,48.0,41.1,72,64,47,30.27,30.12,10,2,10,0.00
2013-4-28,83.8,65.5,51.6,58.7,50.4,42.9,77,60,41,30.12,29.92,10,2,10,0.00
2013-4-29,91.8,71.3,56.1,63.3,51.9,43.1,76,53,33,29.92,29.80,10,2,10,0.00
2013-4-30,88.3,68.5,54.9,53.2,46.8,39.8,69,48,30,29.89,29.83,9,2,9,0.00